sensor_id;sensor_type;location;lat;lon;timestamp;pressure;altitude;pressure_sealevel;temperature;humidity
37291;BME280;23175;-33.706;151.094;2023-04-03T00:02:14;100416.52;;;18.09;56.49
37291;BME280;23175;-33.706;151.094;2023-04-03T00:04:45;100413.15;;;19.22;53.59
37291;BME280;23175;-33.706;151.094;2023-04-03T00:07:15;100408.08;;;19.45;53.52
37291;BME280;23175;-33.706;151.094;2023-04-03T00:09:46;100401.47;;;20.33;51.72
37291;BME280;23175;-33.706;151.094;2023-04-03T00:12:17;100399.27;;;19.60;52.14
37291;BME280;23175;-33.706;151.094;2023-04-03T00:14:47;100402.67;;;16.70;58.53
37291;BME280;23175;-33.706;151.094;2023-04-03T00:17:16;100395.63;;;19.67;52.19
37291;BME280;23175;-33.706;151.094;2023-04-03T00:19:47;100394.01;;;18.51;53.94
37291;BME280;23175;-33.706;151.094;2023-04-03T00:22:16;100392.32;;;18.37;54.89
37291;BME280;23175;-33.706;151.094;2023-04-03T00:24:47;100386.26;;;19.71;52.17
37291;BME280;23175;-33.706;151.094;2023-04-03T00:27:17;100384.19;;;18.54;53.33
37291;BME280;23175;-33.706;151.094;2023-04-03T00:29:48;100378.22;;;18.03;53.61
37291;BME280;23175;-33.706;151.094;2023-04-03T00:32:17;100365.83;;;19.00;51.25
37291;BME280;23175;-33.706;151.094;2023-04-03T00:34:47;100361.68;;;18.15;53.30
37291;BME280;23175;-33.706;151.094;2023-04-03T00:37:18;100357.65;;;17.45;54.56
37291;BME280;23175;-33.706;151.094;2023-04-03T00:39:48;100351.01;;;18.63;52.53
37291;BME280;23175;-33.706;151.094;2023-04-03T00:42:18;100349.57;;;18.44;53.19
37291;BME280;23175;-33.706;151.094;2023-04-03T00:45:55;100350.25;;;19.43;54.09
37291;BME280;23175;-33.706;151.094;2023-04-03T00:48:30;100351.64;;;20.38;51.26
37291;BME280;23175;-33.706;151.094;2023-04-03T00:51:01;100347.55;;;17.14;57.75
37291;BME280;23175;-33.706;151.094;2023-04-03T00:53:35;100347.94;;;17.82;55.97
37291;BME280;23175;-33.706;151.094;2023-04-03T00:56:11;100343.82;;;17.82;56.28
37291;BME280;23175;-33.706;151.094;2023-04-03T00:58:47;100344.43;;;18.11;55.05
37291;BME280;23175;-33.706;151.094;2023-04-03T01:01:21;100344.77;;;16.96;56.33
37291;BME280;23175;-33.706;151.094;2023-04-03T01:03:52;100342.47;;;18.92;53.09
37291;BME280;23175;-33.706;151.094;2023-04-03T01:06:26;100345.28;;;18.43;54.90
37291;BME280;23175;-33.706;151.094;2023-04-03T01:08:57;100340.97;;;17.98;54.54
37291;BME280;23175;-33.706;151.094;2023-04-03T01:11:28;100338.13;;;18.66;54.20
37291;BME280;23175;-33.706;151.094;2023-04-03T01:13:58;100333.74;;;16.77;57.70
37291;BME280;23175;-33.706;151.094;2023-04-03T01:16:29;100331.50;;;18.17;55.65
37291;BME280;23175;-33.706;151.094;2023-04-03T01:19:00;100324.25;;;18.75;52.60
37291;BME280;23175;-33.706;151.094;2023-04-03T01:21:52;100323.53;;;18.41;54.52
37291;BME280;23175;-33.706;151.094;2023-04-03T01:24:34;100324.07;;;17.38;51.73
37291;BME280;23175;-33.706;151.094;2023-04-03T01:27:07;100328.22;;;17.39;54.71
37291;BME280;23175;-33.706;151.094;2023-04-03T01:29:39;100328.35;;;16.89;55.71
37291;BME280;23175;-33.706;151.094;2023-04-03T01:32:10;100326.89;;;17.97;54.25
37291;BME280;23175;-33.706;151.094;2023-04-03T01:34:40;100323.37;;;18.07;55.01
37291;BME280;23175;-33.706;151.094;2023-04-03T01:37:11;100316.52;;;19.16;52.04
37291;BME280;23175;-33.706;151.094;2023-04-03T01:39:41;100309.28;;;18.60;52.51
37291;BME280;23175;-33.706;151.094;2023-04-03T01:42:12;100302.18;;;18.70;51.58
37291;BME280;23175;-33.706;151.094;2023-04-03T01:44:42;100301.30;;;19.75;50.57
37291;BME280;23175;-33.706;151.094;2023-04-03T01:47:13;100300.93;;;20.37;49.18
37291;BME280;23175;-33.706;151.094;2023-04-03T01:49:43;100296.31;;;19.30;51.53
37291;BME280;23175;-33.706;151.094;2023-04-03T01:52:13;100298.42;;;16.52;56.26
37291;BME280;23175;-33.706;151.094;2023-04-03T01:54:44;100300.42;;;15.02;59.16
37291;BME280;23175;-33.706;151.094;2023-04-03T01:57:14;100298.64;;;16.91;60.50
37291;BME280;23175;-33.706;151.094;2023-04-03T01:59:44;100300.52;;;12.58;67.31
37291;BME280;23175;-33.706;151.094;2023-04-03T02:02:14;100286.10;;;17.04;60.65
37291;BME280;23175;-33.706;151.094;2023-04-03T02:04:44;100281.89;;;14.30;62.58
37291;BME280;23175;-33.706;151.094;2023-04-03T02:07:14;100284.51;;;15.44;63.24
37291;BME280;23175;-33.706;151.094;2023-04-03T02:09:44;100283.32;;;17.40;59.57
37291;BME280;23175;-33.706;151.094;2023-04-03T02:12:15;100278.24;;;16.41;62.48
37291;BME280;23175;-33.706;151.094;2023-04-03T02:14:45;100272.10;;;15.43;64.39
37291;BME280;23175;-33.706;151.094;2023-04-03T02:17:15;100269.53;;;16.88;63.53
37291;BME280;23175;-33.706;151.094;2023-04-03T02:19:45;100264.55;;;16.13;63.15
37291;BME280;23175;-33.706;151.094;2023-04-03T02:22:15;100257.03;;;15.56;60.99
37291;BME280;23175;-33.706;151.094;2023-04-03T02:24:45;100257.05;;;18.42;58.18
37291;BME280;23175;-33.706;151.094;2023-04-03T02:27:15;100248.40;;;16.64;60.34
37291;BME280;23175;-33.706;151.094;2023-04-03T02:29:45;100244.21;;;16.41;60.07
37291;BME280;23175;-33.706;151.094;2023-04-03T02:32:15;100239.06;;;17.66;58.89
37291;BME280;23175;-33.706;151.094;2023-04-03T02:34:46;100238.51;;;17.80;57.53
37291;BME280;23175;-33.706;151.094;2023-04-03T02:37:16;100237.10;;;18.13;55.77
37291;BME280;23175;-33.706;151.094;2023-04-03T02:39:47;100236.90;;;17.96;57.13
37291;BME280;23175;-33.706;151.094;2023-04-03T02:42:17;100229.82;;;18.59;55.67
37291;BME280;23175;-33.706;151.094;2023-04-03T02:44:48;100225.58;;;17.56;57.57
37291;BME280;23175;-33.706;151.094;2023-04-03T02:47:18;100225.09;;;16.89;59.61
37291;BME280;23175;-33.706;151.094;2023-04-03T02:49:48;100220.81;;;16.97;61.04
37291;BME280;23175;-33.706;151.094;2023-04-03T02:52:19;100211.12;;;20.76;51.65
37291;BME280;23175;-33.706;151.094;2023-04-03T02:54:49;100207.95;;;16.29;56.54
37291;BME280;23175;-33.706;151.094;2023-04-03T02:57:19;100206.38;;;15.40;59.18
37291;BME280;23175;-33.706;151.094;2023-04-03T02:59:49;100203.22;;;14.97;56.57
37291;BME280;23175;-33.706;151.094;2023-04-03T03:02:19;100194.93;;;17.53;55.93
37291;BME280;23175;-33.706;151.094;2023-04-03T03:04:49;100194.18;;;18.86;52.05
37291;BME280;23175;-33.706;151.094;2023-04-03T03:07:20;100187.38;;;17.75;53.90
37291;BME280;23175;-33.706;151.094;2023-04-03T03:09:50;100185.66;;;17.13;53.66
37291;BME280;23175;-33.706;151.094;2023-04-03T03:12:22;100185.67;;;15.81;56.69
37291;BME280;23175;-33.706;151.094;2023-04-03T03:14:52;100190.48;;;15.29;57.18
37291;BME280;23175;-33.706;151.094;2023-04-03T03:17:22;100180.44;;;15.34;57.18
37291;BME280;23175;-33.706;151.094;2023-04-03T03:19:52;100179.89;;;15.23;57.19
37291;BME280;23175;-33.706;151.094;2023-04-03T03:22:23;100174.67;;;16.79;54.26
37291;BME280;23175;-33.706;151.094;2023-04-03T03:24:53;100177.36;;;16.48;55.41
37291;BME280;23175;-33.706;151.094;2023-04-03T03:27:23;100171.42;;;15.48;56.36
37291;BME280;23175;-33.706;151.094;2023-04-03T03:29:54;100171.03;;;17.32;56.27
37291;BME280;23175;-33.706;151.094;2023-04-03T03:32:24;100164.49;;;18.55;51.64
37291;BME280;23175;-33.706;151.094;2023-04-03T03:34:54;100173.60;;;15.84;56.42
37291;BME280;23175;-33.706;151.094;2023-04-03T03:37:24;100174.61;;;16.03;55.19
37291;BME280;23175;-33.706;151.094;2023-04-03T03:39:54;100171.06;;;16.95;55.06
37291;BME280;23175;-33.706;151.094;2023-04-03T03:42:24;100168.48;;;15.53;56.86
37291;BME280;23175;-33.706;151.094;2023-04-03T03:44:55;100171.19;;;15.37;56.34
37291;BME280;23175;-33.706;151.094;2023-04-03T03:47:25;100167.00;;;15.75;54.39
37291;BME280;23175;-33.706;151.094;2023-04-03T03:49:55;100163.04;;;16.57;53.92
37291;BME280;23175;-33.706;151.094;2023-04-03T03:52:26;100158.02;;;17.95;52.19
37291;BME280;23175;-33.706;151.094;2023-04-03T03:54:56;100157.42;;;16.37;54.05
37291;BME280;23175;-33.706;151.094;2023-04-03T03:57:26;100159.25;;;16.73;52.95
37291;BME280;23175;-33.706;151.094;2023-04-03T03:59:57;100152.25;;;15.58;55.49
37291;BME280;23175;-33.706;151.094;2023-04-03T04:02:27;100152.87;;;16.12;55.90
37291;BME280;23175;-33.706;151.094;2023-04-03T04:04:59;100149.87;;;15.27;58.27
37291;BME280;23175;-33.706;151.094;2023-04-03T04:07:29;100154.99;;;15.56;54.49
37291;BME280;23175;-33.706;151.094;2023-04-03T04:09:59;100161.99;;;15.62;54.76
37291;BME280;23175;-33.706;151.094;2023-04-03T04:12:30;100166.52;;;15.28;56.62
37291;BME280;23175;-33.706;151.094;2023-04-03T04:15:01;100162.80;;;16.71;53.39
37291;BME280;23175;-33.706;151.094;2023-04-03T04:17:31;100165.86;;;15.83;55.58
37291;BME280;23175;-33.706;151.094;2023-04-03T04:20:01;100158.59;;;16.83;50.79
37291;BME280;23175;-33.706;151.094;2023-04-03T04:22:31;100170.25;;;15.99;54.08
37291;BME280;23175;-33.706;151.094;2023-04-03T04:25:01;100168.10;;;16.00;53.72
37291;BME280;23175;-33.706;151.094;2023-04-03T04:27:31;100170.37;;;16.40;53.79
37291;BME280;23175;-33.706;151.094;2023-04-03T04:30:02;100165.48;;;16.73;54.28
37291;BME280;23175;-33.706;151.094;2023-04-03T04:32:32;100161.49;;;16.62;53.19
37291;BME280;23175;-33.706;151.094;2023-04-03T04:35:02;100167.12;;;17.18;53.35
37291;BME280;23175;-33.706;151.094;2023-04-03T04:37:33;100170.24;;;16.63;52.94
37291;BME280;23175;-33.706;151.094;2023-04-03T04:40:03;100166.37;;;16.57;53.05
37291;BME280;23175;-33.706;151.094;2023-04-03T04:42:33;100174.70;;;15.46;55.29
37291;BME280;23175;-33.706;151.094;2023-04-03T04:45:04;100176.15;;;16.64;54.17
37291;BME280;23175;-33.706;151.094;2023-04-03T04:47:34;100166.33;;;16.81;53.27
37291;BME280;23175;-33.706;151.094;2023-04-03T04:50:04;100165.37;;;16.94;54.06
37291;BME280;23175;-33.706;151.094;2023-04-03T04:52:35;100168.66;;;16.65;53.00
37291;BME280;23175;-33.706;151.094;2023-04-03T04:55:05;100168.69;;;17.25;52.79
37291;BME280;23175;-33.706;151.094;2023-04-03T04:57:36;100177.59;;;15.12;54.35
37291;BME280;23175;-33.706;151.094;2023-04-03T05:00:07;100181.07;;;14.56;55.71
37291;BME280;23175;-33.706;151.094;2023-04-03T05:02:37;100179.65;;;14.85;55.38
37291;BME280;23175;-33.706;151.094;2023-04-03T05:05:08;100177.03;;;16.83;52.95
37291;BME280;23175;-33.706;151.094;2023-04-03T05:07:38;100173.92;;;17.44;51.03
37291;BME280;23175;-33.706;151.094;2023-04-03T05:10:09;100186.34;;;16.38;53.82
37291;BME280;23175;-33.706;151.094;2023-04-03T05:12:41;100179.28;;;16.74;53.06
37291;BME280;23175;-33.706;151.094;2023-04-03T05:15:12;100181.62;;;13.83;56.62
37291;BME280;23175;-33.706;151.094;2023-04-03T05:17:42;100175.47;;;16.83;51.84
37291;BME280;23175;-33.706;151.094;2023-04-03T05:20:13;100178.99;;;14.40;55.31
37291;BME280;23175;-33.706;151.094;2023-04-03T05:22:43;100177.73;;;15.92;54.17
37291;BME280;23175;-33.706;151.094;2023-04-03T05:25:14;100174.29;;;18.51;49.38
37291;BME280;23175;-33.706;151.094;2023-04-03T05:27:44;100173.13;;;16.61;52.11
37291;BME280;23175;-33.706;151.094;2023-04-03T05:30:15;100169.74;;;15.74;54.41
37291;BME280;23175;-33.706;151.094;2023-04-03T05:32:47;100175.79;;;15.50;55.12
37291;BME280;23175;-33.706;151.094;2023-04-03T05:35:18;100177.41;;;14.15;56.97
37291;BME280;23175;-33.706;151.094;2023-04-03T05:37:48;100173.75;;;15.00;57.67
37291;BME280;23175;-33.706;151.094;2023-04-03T05:40:18;100180.48;;;13.74;58.78
37291;BME280;23175;-33.706;151.094;2023-04-03T05:42:49;100179.81;;;16.51;55.14
37291;BME280;23175;-33.706;151.094;2023-04-03T05:45:19;100180.18;;;15.95;54.67
37291;BME280;23175;-33.706;151.094;2023-04-03T05:47:49;100186.52;;;15.09;59.46
37291;BME280;23175;-33.706;151.094;2023-04-03T05:50:20;100190.04;;;14.89;59.94
37291;BME280;23175;-33.706;151.094;2023-04-03T05:52:51;100187.18;;;16.56;56.26
37291;BME280;23175;-33.706;151.094;2023-04-03T05:55:22;100193.41;;;14.25;60.56
37291;BME280;23175;-33.706;151.094;2023-04-03T05:57:52;100193.22;;;15.99;57.11
37291;BME280;23175;-33.706;151.094;2023-04-03T06:00:23;100189.99;;;16.28;56.55
37291;BME280;23175;-33.706;151.094;2023-04-03T06:02:53;100195.88;;;14.99;60.28
37291;BME280;23175;-33.706;151.094;2023-04-03T06:05:23;100202.45;;;15.03;58.86
37291;BME280;23175;-33.706;151.094;2023-04-03T06:07:53;100202.89;;;14.23;59.56
37291;BME280;23175;-33.706;151.094;2023-04-03T06:10:23;100206.26;;;15.56;56.66
37291;BME280;23175;-33.706;151.094;2023-04-03T06:12:54;100204.89;;;13.97;61.34
37291;BME280;23175;-33.706;151.094;2023-04-03T06:15:24;100201.46;;;16.91;56.06
37291;BME280;23175;-33.706;151.094;2023-04-03T06:17:54;100200.50;;;17.54;54.78
37291;BME280;23175;-33.706;151.094;2023-04-03T06:20:23;100203.21;;;15.62;56.09
37291;BME280;23175;-33.706;151.094;2023-04-03T06:22:53;100203.61;;;16.80;53.71
37291;BME280;23175;-33.706;151.094;2023-04-03T06:25:23;100205.14;;;16.66;54.77
37291;BME280;23175;-33.706;151.094;2023-04-03T06:27:53;100204.36;;;15.79;56.37
37291;BME280;23175;-33.706;151.094;2023-04-03T06:30:24;100205.31;;;17.72;54.93
37291;BME280;23175;-33.706;151.094;2023-04-03T06:32:54;100202.05;;;17.81;54.72
37291;BME280;23175;-33.706;151.094;2023-04-03T06:35:24;100201.87;;;17.38;53.96
37291;BME280;23175;-33.706;151.094;2023-04-03T06:37:54;100201.51;;;19.68;50.16
37291;BME280;23175;-33.706;151.094;2023-04-03T06:40:26;100207.24;;;17.41;54.33
37291;BME280;23175;-33.706;151.094;2023-04-03T06:42:56;100208.98;;;15.93;57.35
37291;BME280;23175;-33.706;151.094;2023-04-03T06:45:26;100211.15;;;19.68;49.72
37291;BME280;23175;-33.706;151.094;2023-04-03T06:47:57;100216.90;;;16.40;55.96
37291;BME280;23175;-33.706;151.094;2023-04-03T06:50:27;100218.49;;;19.35;50.62
37291;BME280;23175;-33.706;151.094;2023-04-03T06:52:57;100220.11;;;16.58;55.62
37291;BME280;23175;-33.706;151.094;2023-04-03T06:55:26;100219.90;;;17.66;54.09
37291;BME280;23175;-33.706;151.094;2023-04-03T06:57:57;100222.77;;;17.99;53.94
37291;BME280;23175;-33.706;151.094;2023-04-03T07:00:27;100225.02;;;18.79;52.17
37291;BME280;23175;-33.706;151.094;2023-04-03T07:02:58;100225.33;;;16.76;54.93
37291;BME280;23175;-33.706;151.094;2023-04-03T07:05:28;100234.71;;;18.10;53.37
37291;BME280;23175;-33.706;151.094;2023-04-03T07:07:58;100234.01;;;19.50;50.33
37291;BME280;23175;-33.706;151.094;2023-04-03T07:10:29;100237.21;;;17.85;53.36
37291;BME280;23175;-33.706;151.094;2023-04-03T07:13:00;100238.31;;;16.95;55.60
37291;BME280;23175;-33.706;151.094;2023-04-03T07:15:30;100238.25;;;19.15;50.67
37291;BME280;23175;-33.706;151.094;2023-04-03T07:18:00;100244.01;;;14.89;58.06
37291;BME280;23175;-33.706;151.094;2023-04-03T07:20:30;100245.25;;;18.20;52.52
37291;BME280;23175;-33.706;151.094;2023-04-03T07:23:01;100253.75;;;15.93;58.35
37291;BME280;23175;-33.706;151.094;2023-04-03T07:25:31;100252.33;;;17.81;53.50
37291;BME280;23175;-33.706;151.094;2023-04-03T07:28:02;100253.84;;;17.25;55.17
37291;BME280;23175;-33.706;151.094;2023-04-03T07:30:32;100254.09;;;19.00;51.75
37291;BME280;23175;-33.706;151.094;2023-04-03T07:33:02;100255.26;;;17.30;53.16
37291;BME280;23175;-33.706;151.094;2023-04-03T07:35:32;100252.94;;;17.42;53.80
37291;BME280;23175;-33.706;151.094;2023-04-03T07:38:02;100252.69;;;17.41;52.65
37291;BME280;23175;-33.706;151.094;2023-04-03T07:40:33;100258.52;;;18.20;51.76
37291;BME280;23175;-33.706;151.094;2023-04-03T07:43:03;100261.37;;;15.67;57.78
37291;BME280;23175;-33.706;151.094;2023-04-03T07:45:35;100261.85;;;15.32;57.33
37291;BME280;23175;-33.706;151.094;2023-04-03T07:48:06;100263.26;;;17.41;54.06
37291;BME280;23175;-33.706;151.094;2023-04-03T07:50:35;100266.19;;;18.66;52.43
37291;BME280;23175;-33.706;151.094;2023-04-03T07:53:05;100265.47;;;19.09;51.07
37291;BME280;23175;-33.706;151.094;2023-04-03T07:55:36;100266.18;;;19.42;50.71
37291;BME280;23175;-33.706;151.094;2023-04-03T07:58:06;100265.93;;;18.97;50.58
37291;BME280;23175;-33.706;151.094;2023-04-03T08:00:35;100268.08;;;18.56;52.75
37291;BME280;23175;-33.706;151.094;2023-04-03T08:03:05;100269.99;;;17.45;54.56
37291;BME280;23175;-33.706;151.094;2023-04-03T08:05:39;100271.98;;;19.20;51.31
37291;BME280;23175;-33.706;151.094;2023-04-03T08:08:09;100279.36;;;18.66;52.76
37291;BME280;23175;-33.706;151.094;2023-04-03T08:10:40;100281.28;;;18.51;53.31
37291;BME280;23175;-33.706;151.094;2023-04-03T08:13:12;100286.56;;;18.37;54.43
37291;BME280;23175;-33.706;151.094;2023-04-03T08:15:42;100285.17;;;19.17;51.51
37291;BME280;23175;-33.706;151.094;2023-04-03T08:18:13;100291.76;;;17.28;54.43
37291;BME280;23175;-33.706;151.094;2023-04-03T08:20:43;100298.16;;;16.32;56.64
37291;BME280;23175;-33.706;151.094;2023-04-03T08:23:14;100300.73;;;19.23;51.36
37291;BME280;23175;-33.706;151.094;2023-04-03T08:25:45;100304.08;;;18.11;52.31
37291;BME280;23175;-33.706;151.094;2023-04-03T08:28:15;100299.72;;;18.99;51.21
37291;BME280;23175;-33.706;151.094;2023-04-03T08:30:45;100304.51;;;15.12;57.42
37291;BME280;23175;-33.706;151.094;2023-04-03T08:33:15;100306.91;;;17.95;53.29
37291;BME280;23175;-33.706;151.094;2023-04-03T08:35:45;100312.42;;;18.65;51.64
37291;BME280;23175;-33.706;151.094;2023-04-03T08:38:15;100310.84;;;18.87;51.37
37291;BME280;23175;-33.706;151.094;2023-04-03T08:40:45;100316.58;;;16.99;54.27
37291;BME280;23175;-33.706;151.094;2023-04-03T08:43:29;100313.23;;;20.09;49.44
37291;BME280;23175;-33.706;151.094;2023-04-03T08:46:05;100323.04;;;16.51;54.33
37291;BME280;23175;-33.706;151.094;2023-04-03T08:48:38;100324.52;;;18.86;50.84
37291;BME280;23175;-33.706;151.094;2023-04-03T08:51:15;100332.15;;;15.48;54.92
37291;BME280;23175;-33.706;151.094;2023-04-03T08:53:55;100336.68;;;16.86;53.38
37291;BME280;23175;-33.706;151.094;2023-04-03T08:56:27;100340.42;;;17.71;53.32
37291;BME280;23175;-33.706;151.094;2023-04-03T08:59:00;100340.84;;;17.67;52.47
37291;BME280;23175;-33.706;151.094;2023-04-03T09:01:36;100343.05;;;19.84;49.10
37291;BME280;23175;-33.706;151.094;2023-04-03T09:04:13;100351.99;;;17.49;51.66
37291;BME280;23175;-33.706;151.094;2023-04-03T09:06:47;100353.19;;;17.30;52.24
37291;BME280;23175;-33.706;151.094;2023-04-03T09:09:30;100355.89;;;17.05;51.68
37291;BME280;23175;-33.706;151.094;2023-04-03T09:12:06;100354.24;;;20.11;48.07
37291;BME280;23175;-33.706;151.094;2023-04-03T09:14:46;100357.00;;;19.95;47.56
37291;BME280;23175;-33.706;151.094;2023-04-03T09:17:24;100357.32;;;19.98;47.40
37291;BME280;23175;-33.706;151.094;2023-04-03T09:20:06;100357.77;;;19.97;47.61
37291;BME280;23175;-33.706;151.094;2023-04-03T09:22:42;100363.05;;;17.54;51.47
37291;BME280;23175;-33.706;151.094;2023-04-03T09:25:15;100365.77;;;16.64;54.04
37291;BME280;23175;-33.706;151.094;2023-04-03T09:27:46;100366.37;;;18.94;49.72
37291;BME280;23175;-33.706;151.094;2023-04-03T09:30:19;100369.62;;;18.06;50.54
37291;BME280;23175;-33.706;151.094;2023-04-03T09:32:51;100369.87;;;18.68;50.34
37291;BME280;23175;-33.706;151.094;2023-04-03T09:35:25;100374.45;;;17.95;51.15
37291;BME280;23175;-33.706;151.094;2023-04-03T09:38:00;100373.50;;;18.31;51.13
37291;BME280;23175;-33.706;151.094;2023-04-03T09:40:37;100375.70;;;19.06;49.99
37291;BME280;23175;-33.706;151.094;2023-04-03T09:43:31;100376.84;;;19.90;48.48
37291;BME280;23175;-33.706;151.094;2023-04-03T09:46:23;100381.81;;;20.15;48.35
37291;BME280;23175;-33.706;151.094;2023-04-03T09:48:58;100383.48;;;19.57;48.21
37291;BME280;23175;-33.706;151.094;2023-04-03T09:51:29;100385.69;;;18.76;49.40
37291;BME280;23175;-33.706;151.094;2023-04-03T09:54:00;100387.86;;;18.26;50.00
37291;BME280;23175;-33.706;151.094;2023-04-03T09:56:31;100388.34;;;19.00;50.02
37291;BME280;23175;-33.706;151.094;2023-04-03T09:59:16;100391.21;;;20.12;48.28
37291;BME280;23175;-33.706;151.094;2023-04-03T10:01:58;100394.02;;;19.72;48.84
37291;BME280;23175;-33.706;151.094;2023-04-03T10:04:39;100396.96;;;18.47;49.98
37291;BME280;23175;-33.706;151.094;2023-04-03T10:07:30;100393.95;;;18.77;50.11
37291;BME280;23175;-33.706;151.094;2023-04-03T10:10:14;100396.64;;;19.27;49.80
37291;BME280;23175;-33.706;151.094;2023-04-03T10:12:46;100398.11;;;18.37;50.80
37291;BME280;23175;-33.706;151.094;2023-04-03T10:15:18;100395.42;;;19.35;49.50
37291;BME280;23175;-33.706;151.094;2023-04-03T10:17:56;100396.48;;;18.91;49.82
37291;BME280;23175;-33.706;151.094;2023-04-03T10:20:33;100397.34;;;18.97;49.37
37291;BME280;23175;-33.706;151.094;2023-04-03T10:23:15;100399.46;;;19.04;49.11
37291;BME280;23175;-33.706;151.094;2023-04-03T10:25:54;100399.24;;;19.23;49.43
37291;BME280;23175;-33.706;151.094;2023-04-03T10:28:33;100398.77;;;18.16;50.09
37291;BME280;23175;-33.706;151.094;2023-04-03T10:31:13;100402.14;;;19.57;48.82
37291;BME280;23175;-33.706;151.094;2023-04-03T10:33:53;100402.97;;;19.44;48.67
37291;BME280;23175;-33.706;151.094;2023-04-03T10:36:35;100406.52;;;18.80;49.80
37291;BME280;23175;-33.706;151.094;2023-04-03T10:39:15;100410.33;;;17.17;53.80
37291;BME280;23175;-33.706;151.094;2023-04-03T10:41:58;100412.90;;;18.97;49.70
37291;BME280;23175;-33.706;151.094;2023-04-03T10:44:39;100415.72;;;18.86;49.82
37291;BME280;23175;-33.706;151.094;2023-04-03T10:47:16;100411.09;;;19.02;49.44
37291;BME280;23175;-33.706;151.094;2023-04-03T10:49:55;100411.24;;;19.09;48.84
37291;BME280;23175;-33.706;151.094;2023-04-03T10:52:35;100416.82;;;18.57;49.63
37291;BME280;23175;-33.706;151.094;2023-04-03T10:55:20;100414.19;;;19.17;49.02
37291;BME280;23175;-33.706;151.094;2023-04-03T10:57:56;100416.35;;;19.27;48.69
37291;BME280;23175;-33.706;151.094;2023-04-03T11:00:33;100419.27;;;19.02;49.03
37291;BME280;23175;-33.706;151.094;2023-04-03T11:03:10;100417.89;;;19.33;48.46
37291;BME280;23175;-33.706;151.094;2023-04-03T11:05:44;100419.41;;;18.98;48.86
37291;BME280;23175;-33.706;151.094;2023-04-03T11:08:26;100417.26;;;19.17;48.57
37291;BME280;23175;-33.706;151.094;2023-04-03T11:10:59;100419.66;;;18.32;50.00
37291;BME280;23175;-33.706;151.094;2023-04-03T11:13:35;100422.69;;;18.93;49.01
37291;BME280;23175;-33.706;151.094;2023-04-03T11:16:07;100416.47;;;19.03;48.81
37291;BME280;23175;-33.706;151.094;2023-04-03T11:18:42;100419.68;;;19.29;48.28
37291;BME280;23175;-33.706;151.094;2023-04-03T11:21:21;100418.35;;;19.21;48.37
37291;BME280;23175;-33.706;151.094;2023-04-03T11:23:54;100419.93;;;19.13;48.32
37291;BME280;23175;-33.706;151.094;2023-04-03T11:26:30;100425.20;;;18.72;48.94
37291;BME280;23175;-33.706;151.094;2023-04-03T11:29:05;100424.54;;;18.87;48.66
37291;BME280;23175;-33.706;151.094;2023-04-03T11:31:47;100422.83;;;18.80;48.65
37291;BME280;23175;-33.706;151.094;2023-04-03T11:34:33;100421.72;;;18.95;48.39
37291;BME280;23175;-33.706;151.094;2023-04-03T11:37:11;100424.04;;;18.95;48.34
37291;BME280;23175;-33.706;151.094;2023-04-03T11:39:50;100424.34;;;19.41;48.01
37291;BME280;23175;-33.706;151.094;2023-04-03T11:42:29;100427.93;;;18.84;48.49
37291;BME280;23175;-33.706;151.094;2023-04-03T11:46:08;100430.31;;;18.64;48.86
37291;BME280;23175;-33.706;151.094;2023-04-03T11:48:55;100429.79;;;18.95;48.87
37291;BME280;23175;-33.706;151.094;2023-04-03T11:51:43;100426.16;;;18.52;48.98
37291;BME280;23175;-33.706;151.094;2023-04-03T11:56:32;100427.12;;;18.79;48.31
37291;BME280;23175;-33.706;151.094;2023-04-03T11:59:23;100422.08;;;18.27;49.13
37291;BME280;23175;-33.706;151.094;2023-04-03T12:01:55;100420.42;;;18.74;48.17
37291;BME280;23175;-33.706;151.094;2023-04-03T12:04:26;100419.89;;;18.63;48.33
37291;BME280;23175;-33.706;151.094;2023-04-03T12:07:18;100421.19;;;18.75;48.00
37291;BME280;23175;-33.706;151.094;2023-04-03T12:10:00;100418.09;;;18.43;48.46
37291;BME280;23175;-33.706;151.094;2023-04-03T12:12:40;100416.27;;;18.27;48.75
37291;BME280;23175;-33.706;151.094;2023-04-03T12:15:48;100416.32;;;18.86;48.14
37291;BME280;23175;-33.706;151.094;2023-04-03T12:21:03;100416.54;;;17.90;49.16
37291;BME280;23175;-33.706;151.094;2023-04-03T12:23:34;100414.31;;;18.55;47.95
37291;BME280;23175;-33.706;151.094;2023-04-03T12:26:20;100411.69;;;18.65;48.22
37291;BME280;23175;-33.706;151.094;2023-04-03T12:28:53;100414.32;;;18.42;47.93
37291;BME280;23175;-33.706;151.094;2023-04-03T12:31:25;100413.10;;;17.63;49.07
37291;BME280;23175;-33.706;151.094;2023-04-03T12:34:17;100411.64;;;18.24;48.23
37291;BME280;23175;-33.706;151.094;2023-04-03T12:36:59;100408.00;;;18.47;48.29
37291;BME280;23175;-33.706;151.094;2023-04-03T12:39:53;100408.92;;;18.52;48.29
37291;BME280;23175;-33.706;151.094;2023-04-03T12:42:40;100407.27;;;18.24;48.14
37291;BME280;23175;-33.706;151.094;2023-04-03T12:45:21;100408.17;;;18.71;47.71
37291;BME280;23175;-33.706;151.094;2023-04-03T12:47:53;100405.99;;;18.20;48.02
37291;BME280;23175;-33.706;151.094;2023-04-03T12:50:27;100404.00;;;18.27;47.91
37291;BME280;23175;-33.706;151.094;2023-04-03T12:53:01;100401.57;;;18.45;48.32
37291;BME280;23175;-33.706;151.094;2023-04-03T12:55:32;100402.53;;;18.55;47.99
37291;BME280;23175;-33.706;151.094;2023-04-03T12:58:16;100401.77;;;18.61;48.41